WetterOnline ( http://www.wetteronline.de )

Wetter aktuell Giesensdorf

Aktuelles Wetter: Lübeck/Blankensee (15m)

6-stündlich | Neueste Meldungen
Ortszeit Temperatur Wetter
Fr, 17.08. 2:00 16.7° C wolkig
Do, 16.08. 20:00 26.0° C wolkig
Do, 16.08. 14:00 26.6° C wolkig
Do, 16.08. 8:00 17.3° C wolkenlos
Do, 16.08. 2:00 17.3° C wolkig
Mi, 15.08. 20:00 21.5° C bedeckt
Mi, 15.08. 14:00 22.7° C bedeckt
Mi, 15.08. 8:00 16.8° C bedeckt
Ortszeit Temperatur Wetter
Fr, 17.08. 2:00 16.7° C wolkig
Fr, 17.08. 1:40 16.9° C wolkig
Fr, 17.08. 1:30 16.9° C leicht bewölkt
Fr, 17.08. 1:20 16.9° C leicht bewölkt
Fr, 17.08. 1:10 17.3° C leicht bewölkt
Fr, 17.08. 1:00 17.8° C leicht bewölkt
Fr, 17.08. 0:50 17.8° C leicht bewölkt
Fr, 17.08. 0:30 18.3° C leicht bewölkt
Fr, 17.08. 0:00 19.1° C fast wolkenlos
Do, 16.08. 23:30 19.5° C wolkenlos
Do, 16.08. 23:00 19.8° C leicht bewölkt
Ortszeit Relative Feuchte Sichtweite
Fr, 17.08. 2:00 93% 7 km
Do, 16.08. 20:00 49% 30 km
Do, 16.08. 14:00 44% 24 km
Do, 16.08. 8:00 82% 11 km
Do, 16.08. 2:00 84% 21 km
Mi, 15.08. 20:00 67% 19 km
Mi, 15.08. 14:00 60% 35 km
Mi, 15.08. 8:00 89% 25 km
Ortszeit Relative Feuchte Sichtweite
Fr, 17.08. 2:00 93% 7 km
Fr, 17.08. 1:40 92% -
Fr, 17.08. 1:30 91% 6 km
Fr, 17.08. 1:20 91% -
Fr, 17.08. 1:10 90% -
Fr, 17.08. 1:00 88% 8 km
Fr, 17.08. 0:50 88% -
Fr, 17.08. 0:30 85% 9 km
Fr, 17.08. 0:00 82% 11 km
Do, 16.08. 23:30 79% 12 km
Do, 16.08. 23:00 77% 14 km
Ortszeit Niederschlagsmenge Niederschlagsart
Fr, 17.08. 2:00 0.0 l/m2 in 6 Std. -
Do, 16.08. 20:00 0.0 l/m2 in 12 Std. -
Do, 16.08. 14:00 0.0 l/m2 in 6 Std. -
Do, 16.08. 8:00 0.0 l/m2 in 12 Std. -
Do, 16.08. 2:00 0.0 l/m2 in 6 Std. -
Mi, 15.08. 20:00 0.1 l/m2 in 12 Std. Regen
Mi, 15.08. 14:00 0.0 l/m2 in 6 Std. -
Mi, 15.08. 8:00 0.7 l/m2 in 12 Std. -
Ortszeit Niederschlagsmenge Niederschlagsart
Fr, 17.08. 2:00 0.0 l/m2 in 1 Std. -
Fr, 17.08. 1:40 keine Meldung -
Fr, 17.08. 1:30 0.0 l/m2 in 1 Std. -
Fr, 17.08. 1:20 keine Meldung -
Fr, 17.08. 1:10 keine Meldung -
Fr, 17.08. 1:00 0.0 l/m2 in 1 Std. -
Fr, 17.08. 0:50 keine Meldung -
Fr, 17.08. 0:30 0.0 l/m2 in 1 Std. -
Fr, 17.08. 0:00 0.0 l/m2 in 1 Std. -
Do, 16.08. 23:30 0.0 l/m2 in 1 Std. -
Do, 16.08. 23:00 0.0 l/m2 in 1 Std. -
Ortszeit Stärke Spitze Richtung
km/h Bft. km/h Grad Sektor
Fr, 17.08. 2:00 4 1 18 300° NW
Do, 16.08. 20:00 4 1 29 160° S
Do, 16.08. 14:00 11 2 32 200° S
Do, 16.08. 8:00 7 2 11 140° SO
Do, 16.08. 2:00 7 2 14 170° S
Mi, 15.08. 20:00 6 1 28 210° SW
Mi, 15.08. 14:00 9 2 24 250° W
Mi, 15.08. 8:00 4 1 25 210° SW
Ortszeit Stärke Spitze Richtung
km/h Bft. km/h Grad Sektor
Fr, 17.08. 2:00 4 1 7 300° NW
Fr, 17.08. 1:40 7 2 - 290° W
Fr, 17.08. 1:30 4 1 7 280° W
Fr, 17.08. 1:20 4 1 - 280° W
Fr, 17.08. 1:10 6 1 - 280° W
Fr, 17.08. 1:00 6 1 13 290° W
Fr, 17.08. 0:50 6 1 - 290° W
Fr, 17.08. 0:30 7 2 13 280° W
Fr, 17.08. 0:00 4 1 11 330° NW
Do, 16.08. 23:30 4 1 7 320° NW
Do, 16.08. 23:00 4 1 7 300° NW
Ortszeit Untergrenze Bedeckung Gattung
total tief tief mittel hoch
Fr, 17.08. 2:00 10500 m 7/8 0/8 - - -
Do, 16.08. 20:00 1800 m 8/8 1/8 - - -
Do, 16.08. 14:00 1500 m 8/8 3/8 - - -
Do, 16.08. 8:00 - 0/8 0/8 - - -
Do, 16.08. 2:00 10500 m 8/8 0/8 - - -
Mi, 15.08. 20:00 1410 m 8/8 8/8 - - -
Mi, 15.08. 14:00 990 m 8/8 8/8 - - -
Mi, 15.08. 8:00 1500 m 8/8 8/8 - - -
Ortszeit Bedeckungsgrad in Achtel und Wolkenuntergrenze
Fr, 17.08. 2:00 4(10500m) 7(10500m)
Fr, 17.08. 1:40 4(10500m) 7(10500m)
Fr, 17.08. 1:30 5(10500m) 6(10500m)
Fr, 17.08. 1:20 5(10500m) 6(10500m)
Fr, 17.08. 1:10 5(10500m) 6(10500m)
Fr, 17.08. 1:00 3(10500m) 4(10500m)
Fr, 17.08. 0:50 3(10500m) 4(10500m)
Fr, 17.08. 0:30 1(3300m) 3(10500m)
Fr, 17.08. 0:00 1(10500m)
Do, 16.08. 23:30 keine Wolken
Do, 16.08. 23:00 3(10500m)
Ortszeit Luftdruck NN (hPa) Tendenz (hPa in 3 Std.)
Fr, 17.08. 2:00 1015 + 0,8
Do, 16.08. 20:00 1013 - 0,6
Do, 16.08. 14:00 1015 - 1,4
Do, 16.08. 8:00 1017 - 0,4
Do, 16.08. 2:00 1018 - 0,2
Mi, 15.08. 20:00 1018 + 0,2
Mi, 15.08. 14:00 1018 + 0,1
Mi, 15.08. 8:00 1016 + 0,9
Ortszeit Luftdruck NN (hPa) Tendenz (hPa in 3 Std.)
Fr, 17.08. 2:00 1015 + 0,8
Fr, 17.08. 1:40 1015 keine Meldung
Fr, 17.08. 1:30 1015 + 0,9
Fr, 17.08. 1:20 1015 keine Meldung
Fr, 17.08. 1:10 1015 keine Meldung
Fr, 17.08. 1:00 1015 + 0,9
Fr, 17.08. 0:50 1015 keine Meldung
Fr, 17.08. 0:30 1015 + 1,0
Fr, 17.08. 0:00 1015 + 0,9
Do, 16.08. 23:30 1014 + 0,8
Do, 16.08. 23:00 1014 + 0,7
Ortszeit Schneehöhe (cm)
Fr, 17.08. 2:00 -
Do, 16.08. 20:00 -
Do, 16.08. 14:00 -
Do, 16.08. 8:00 -
Do, 16.08. 2:00 -
Mi, 15.08. 20:00 -
Mi, 15.08. 14:00 -
Mi, 15.08. 8:00 -
Ortszeit Schneehöhe (cm)
Fr, 17.08. 2:00 -
Fr, 17.08. 1:40 -
Fr, 17.08. 1:30 -
Fr, 17.08. 1:20 -
Fr, 17.08. 1:10 -
Fr, 17.08. 1:00 -
Fr, 17.08. 0:50 -
Fr, 17.08. 0:30 -
Fr, 17.08. 0:00 -
Do, 16.08. 23:30 -
Do, 16.08. 23:00 -
Link zu dieser Seite / Seite empfehlen

Das Wetter in ...